sensor_id;sensor_type;location;lat;lon;timestamp;P1;durP1;ratioP1;P2;durP2;ratioP2
2956;SDS011;1488;51.548;7.222;2023-07-16T00:01:51;1.13;;;1.00;;
2956;SDS011;1488;51.548;7.222;2023-07-16T00:04:18;1.33;;;0.90;;
2956;SDS011;1488;51.548;7.222;2023-07-16T00:06:45;1.37;;;1.00;;
2956;SDS011;1488;51.548;7.222;2023-07-16T00:09:12;1.30;;;1.00;;
2956;SDS011;1488;51.548;7.222;2023-07-16T00:11:39;1.10;;;0.90;;
2956;SDS011;1488;51.548;7.222;2023-07-16T00:14:06;1.10;;;0.90;;
2956;SDS011;1488;51.548;7.222;2023-07-16T00:16:35;1.10;;;1.00;;
2956;SDS011;1488;51.548;7.222;2023-07-16T00:22:24;1.10;;;1.00;;
2956;SDS011;1488;51.548;7.222;2023-07-16T00:24:50;1.00;;;0.80;;
2956;SDS011;1488;51.548;7.222;2023-07-16T00:27:17;1.20;;;1.00;;
2956;SDS011;1488;51.548;7.222;2023-07-16T00:29:44;1.10;;;0.93;;
2956;SDS011;1488;51.548;7.222;2023-07-16T00:32:12;1.20;;;1.10;;
2956;SDS011;1488;51.548;7.222;2023-07-16T00:34:39;1.27;;;1.03;;
2956;SDS011;1488;51.548;7.222;2023-07-16T00:37:06;1.00;;;0.83;;
2956;SDS011;1488;51.548;7.222;2023-07-16T00:39:33;1.20;;;1.00;;
2956;SDS011;1488;51.548;7.222;2023-07-16T00:42:00;1.97;;;1.10;;
2956;SDS011;1488;51.548;7.222;2023-07-16T00:44:27;1.30;;;1.20;;
2956;SDS011;1488;51.548;7.222;2023-07-16T00:46:54;1.17;;;1.00;;
2956;SDS011;1488;51.548;7.222;2023-07-16T00:49:22;1.50;;;1.00;;
2956;SDS011;1488;51.548;7.222;2023-07-16T00:51:50;1.13;;;1.03;;
2956;SDS011;1488;51.548;7.222;2023-07-16T00:54:18;1.10;;;1.00;;
2956;SDS011;1488;51.548;7.222;2023-07-16T00:56:46;1.10;;;0.90;;
2956;SDS011;1488;51.548;7.222;2023-07-16T00:59:13;1.13;;;1.00;;
2956;SDS011;1488;51.548;7.222;2023-07-16T01:01:40;1.20;;;1.10;;
2956;SDS011;1488;51.548;7.222;2023-07-16T01:04:07;1.70;;;1.00;;
2956;SDS011;1488;51.548;7.222;2023-07-16T01:06:36;1.20;;;1.10;;
2956;SDS011;1488;51.548;7.222;2023-07-16T01:09:07;1.10;;;1.00;;
2956;SDS011;1488;51.548;7.222;2023-07-16T01:11:37;1.20;;;0.90;;
2956;SDS011;1488;51.548;7.222;2023-07-16T01:14:06;1.10;;;1.00;;
2956;SDS011;1488;51.548;7.222;2023-07-16T01:16:34;1.50;;;0.93;;
2956;SDS011;1488;51.548;7.222;2023-07-16T01:19:01;1.30;;;1.10;;
2956;SDS011;1488;51.548;7.222;2023-07-16T01:21:29;1.50;;;0.90;;
2956;SDS011;1488;51.548;7.222;2023-07-16T01:24:09;1.50;;;1.00;;
2956;SDS011;1488;51.548;7.222;2023-07-16T01:27:07;1.10;;;0.90;;
2956;SDS011;1488;51.548;7.222;2023-07-16T01:29:50;1.30;;;0.90;;
2956;SDS011;1488;51.548;7.222;2023-07-16T01:32:20;1.20;;;1.07;;
2956;SDS011;1488;51.548;7.222;2023-07-16T01:34:48;1.20;;;1.00;;
2956;SDS011;1488;51.548;7.222;2023-07-16T01:37:15;1.30;;;1.13;;
2956;SDS011;1488;51.548;7.222;2023-07-16T01:39:42;1.20;;;1.10;;
2956;SDS011;1488;51.548;7.222;2023-07-16T01:42:09;1.13;;;0.93;;
2956;SDS011;1488;51.548;7.222;2023-07-16T01:44:37;1.23;;;1.00;;
2956;SDS011;1488;51.548;7.222;2023-07-16T01:47:06;1.10;;;0.90;;
2956;SDS011;1488;51.548;7.222;2023-07-16T01:49:36;1.00;;;0.87;;
2956;SDS011;1488;51.548;7.222;2023-07-16T01:52:03;1.20;;;0.97;;
2956;SDS011;1488;51.548;7.222;2023-07-16T01:54:31;1.00;;;0.80;;
2956;SDS011;1488;51.548;7.222;2023-07-16T01:56:58;1.70;;;1.10;;
2956;SDS011;1488;51.548;7.222;2023-07-16T01:59:25;1.10;;;1.00;;
2956;SDS011;1488;51.548;7.222;2023-07-16T02:01:52;1.10;;;0.90;;
2956;SDS011;1488;51.548;7.222;2023-07-16T02:04:20;1.30;;;1.00;;
2956;SDS011;1488;51.548;7.222;2023-07-16T02:06:47;1.20;;;1.00;;
2956;SDS011;1488;51.548;7.222;2023-07-16T02:09:14;1.37;;;0.93;;
2956;SDS011;1488;51.548;7.222;2023-07-16T02:11:41;1.27;;;1.10;;
2956;SDS011;1488;51.548;7.222;2023-07-16T02:14:08;1.10;;;0.90;;
2956;SDS011;1488;51.548;7.222;2023-07-16T02:16:35;1.10;;;1.00;;
2956;SDS011;1488;51.548;7.222;2023-07-16T02:19:02;1.10;;;0.90;;
2956;SDS011;1488;51.548;7.222;2023-07-16T02:21:30;1.20;;;1.10;;
2956;SDS011;1488;51.548;7.222;2023-07-16T02:23:57;1.00;;;0.87;;
2956;SDS011;1488;51.548;7.222;2023-07-16T02:26:24;1.17;;;0.90;;
2956;SDS011;1488;51.548;7.222;2023-07-16T02:28:51;1.30;;;0.90;;
2956;SDS011;1488;51.548;7.222;2023-07-16T02:31:18;1.00;;;0.77;;
2956;SDS011;1488;51.548;7.222;2023-07-16T02:33:45;1.20;;;1.00;;
2956;SDS011;1488;51.548;7.222;2023-07-16T02:36:12;1.00;;;0.80;;
2956;SDS011;1488;51.548;7.222;2023-07-16T02:38:40;1.10;;;0.90;;
2956;SDS011;1488;51.548;7.222;2023-07-16T02:41:07;1.20;;;1.00;;
2956;SDS011;1488;51.548;7.222;2023-07-16T02:46:56;1.20;;;1.10;;
2956;SDS011;1488;51.548;7.222;2023-07-16T02:49:22;1.10;;;0.87;;
2956;SDS011;1488;51.548;7.222;2023-07-16T02:51:49;1.40;;;1.20;;
2956;SDS011;1488;51.548;7.222;2023-07-16T02:54:18;1.77;;;1.33;;
2956;SDS011;1488;51.548;7.222;2023-07-16T02:56:45;1.30;;;1.20;;
2956;SDS011;1488;51.548;7.222;2023-07-16T02:59:13;1.13;;;0.90;;
2956;SDS011;1488;51.548;7.222;2023-07-16T03:01:40;1.00;;;0.90;;
2956;SDS011;1488;51.548;7.222;2023-07-16T03:04:06;1.20;;;0.93;;
2956;SDS011;1488;51.548;7.222;2023-07-16T03:06:33;1.10;;;0.90;;
2956;SDS011;1488;51.548;7.222;2023-07-16T03:09:00;1.40;;;1.30;;
2956;SDS011;1488;51.548;7.222;2023-07-16T03:11:29;1.57;;;1.00;;
2956;SDS011;1488;51.548;7.222;2023-07-16T03:13:56;1.03;;;0.87;;
2956;SDS011;1488;51.548;7.222;2023-07-16T03:16:23;1.20;;;1.10;;
2956;SDS011;1488;51.548;7.222;2023-07-16T03:18:50;1.00;;;0.90;;
2956;SDS011;1488;51.548;7.222;2023-07-16T03:21:16;1.20;;;0.90;;
2956;SDS011;1488;51.548;7.222;2023-07-16T03:23:43;1.20;;;1.10;;
2956;SDS011;1488;51.548;7.222;2023-07-16T03:26:10;1.13;;;0.80;;
2956;SDS011;1488;51.548;7.222;2023-07-16T03:28:39;1.10;;;1.00;;
2956;SDS011;1488;51.548;7.222;2023-07-16T03:31:05;1.30;;;1.10;;
2956;SDS011;1488;51.548;7.222;2023-07-16T03:33:32;1.23;;;1.10;;
2956;SDS011;1488;51.548;7.222;2023-07-16T03:35:59;2.20;;;1.20;;
2956;SDS011;1488;51.548;7.222;2023-07-16T03:38:26;1.10;;;0.90;;
2956;SDS011;1488;51.548;7.222;2023-07-16T03:40:53;1.20;;;0.90;;
2956;SDS011;1488;51.548;7.222;2023-07-16T03:43:20;1.13;;;1.00;;
2956;SDS011;1488;51.548;7.222;2023-07-16T03:45:49;2.07;;;0.90;;
2956;SDS011;1488;51.548;7.222;2023-07-16T03:48:16;1.20;;;1.10;;
2956;SDS011;1488;51.548;7.222;2023-07-16T03:50:43;1.13;;;1.03;;
2956;SDS011;1488;51.548;7.222;2023-07-16T03:53:10;1.10;;;0.80;;
2956;SDS011;1488;51.548;7.222;2023-07-16T03:55:36;1.30;;;1.10;;
2956;SDS011;1488;51.548;7.222;2023-07-16T03:58:03;1.10;;;0.90;;
2956;SDS011;1488;51.548;7.222;2023-07-16T04:00:30;1.30;;;1.10;;
2956;SDS011;1488;51.548;7.222;2023-07-16T04:02:59;1.10;;;0.90;;
2956;SDS011;1488;51.548;7.222;2023-07-16T04:05:26;1.27;;;1.07;;
2956;SDS011;1488;51.548;7.222;2023-07-16T04:07:53;1.30;;;0.90;;
2956;SDS011;1488;51.548;7.222;2023-07-16T04:10:20;1.50;;;0.90;;
2956;SDS011;1488;51.548;7.222;2023-07-16T04:12:47;1.33;;;0.80;;
2956;SDS011;1488;51.548;7.222;2023-07-16T04:15:14;1.03;;;0.83;;
2956;SDS011;1488;51.548;7.222;2023-07-16T04:17:40;1.20;;;1.10;;
2956;SDS011;1488;51.548;7.222;2023-07-16T04:20:09;1.20;;;1.00;;
2956;SDS011;1488;51.548;7.222;2023-07-16T04:22:36;1.10;;;0.90;;
2956;SDS011;1488;51.548;7.222;2023-07-16T04:25:03;1.20;;;0.87;;
2956;SDS011;1488;51.548;7.222;2023-07-16T04:27:31;1.30;;;1.13;;
2956;SDS011;1488;51.548;7.222;2023-07-16T04:29:58;1.20;;;1.07;;
2956;SDS011;1488;51.548;7.222;2023-07-16T04:32:25;1.30;;;1.20;;
2956;SDS011;1488;51.548;7.222;2023-07-16T04:34:51;1.17;;;0.93;;
2956;SDS011;1488;51.548;7.222;2023-07-16T04:37:20;1.97;;;1.00;;
2956;SDS011;1488;51.548;7.222;2023-07-16T04:39:47;1.30;;;1.00;;
2956;SDS011;1488;51.548;7.222;2023-07-16T04:42:14;1.13;;;1.00;;
2956;SDS011;1488;51.548;7.222;2023-07-16T04:44:41;1.20;;;1.00;;
2956;SDS011;1488;51.548;7.222;2023-07-16T04:47:08;2.07;;;0.90;;
2956;SDS011;1488;51.548;7.222;2023-07-16T04:49:35;1.30;;;1.10;;
2956;SDS011;1488;51.548;7.222;2023-07-16T04:52:02;1.20;;;1.00;;
2956;SDS011;1488;51.548;7.222;2023-07-16T04:57:53;1.13;;;0.90;;
2956;SDS011;1488;51.548;7.222;2023-07-16T05:00:21;1.57;;;1.00;;
2956;SDS011;1488;51.548;7.222;2023-07-16T05:02:48;1.20;;;1.07;;
2956;SDS011;1488;51.548;7.222;2023-07-16T05:05:15;1.10;;;0.90;;
2956;SDS011;1488;51.548;7.222;2023-07-16T05:07:42;1.13;;;0.90;;
2956;SDS011;1488;51.548;7.222;2023-07-16T05:10:09;1.20;;;1.10;;
2956;SDS011;1488;51.548;7.222;2023-07-16T05:12:37;1.20;;;1.10;;
2956;SDS011;1488;51.548;7.222;2023-07-16T05:15:06;1.10;;;0.90;;
2956;SDS011;1488;51.548;7.222;2023-07-16T05:17:33;1.10;;;1.00;;
2956;SDS011;1488;51.548;7.222;2023-07-16T05:20:00;1.20;;;1.00;;
2956;SDS011;1488;51.548;7.222;2023-07-16T05:22:27;2.13;;;1.00;;
2956;SDS011;1488;51.548;7.222;2023-07-16T05:24:54;1.20;;;1.10;;
2956;SDS011;1488;51.548;7.222;2023-07-16T05:27:22;1.20;;;1.10;;
2956;SDS011;1488;51.548;7.222;2023-07-16T05:29:48;1.13;;;0.97;;
2956;SDS011;1488;51.548;7.222;2023-07-16T05:32:17;1.13;;;0.90;;
2956;SDS011;1488;51.548;7.222;2023-07-16T05:34:44;1.83;;;1.17;;
2956;SDS011;1488;51.548;7.222;2023-07-16T05:37:11;1.30;;;1.00;;
2956;SDS011;1488;51.548;7.222;2023-07-16T05:39:37;1.53;;;1.30;;
2956;SDS011;1488;51.548;7.222;2023-07-16T05:42:05;1.40;;;1.20;;
2956;SDS011;1488;51.548;7.222;2023-07-16T05:44:32;1.10;;;1.00;;
2956;SDS011;1488;51.548;7.222;2023-07-16T05:46:59;1.20;;;1.00;;
2956;SDS011;1488;51.548;7.222;2023-07-16T05:49:28;1.10;;;0.90;;
2956;SDS011;1488;51.548;7.222;2023-07-16T05:51:54;1.20;;;1.00;;
2956;SDS011;1488;51.548;7.222;2023-07-16T05:54:21;1.37;;;1.03;;
2956;SDS011;1488;51.548;7.222;2023-07-16T05:56:49;1.40;;;0.93;;
2956;SDS011;1488;51.548;7.222;2023-07-16T05:59:15;1.10;;;1.00;;
2956;SDS011;1488;51.548;7.222;2023-07-16T06:01:42;1.33;;;1.23;;
2956;SDS011;1488;51.548;7.222;2023-07-16T06:04:09;1.30;;;1.17;;
2956;SDS011;1488;51.548;7.222;2023-07-16T06:06:38;1.30;;;1.00;;
2956;SDS011;1488;51.548;7.222;2023-07-16T06:09:05;1.67;;;1.20;;
2956;SDS011;1488;51.548;7.222;2023-07-16T06:11:32;1.30;;;1.00;;
2956;SDS011;1488;51.548;7.222;2023-07-16T06:13:59;1.30;;;1.20;;
2956;SDS011;1488;51.548;7.222;2023-07-16T06:16:26;1.07;;;0.90;;
2956;SDS011;1488;51.548;7.222;2023-07-16T06:18:52;1.47;;;1.27;;
2956;SDS011;1488;51.548;7.222;2023-07-16T06:21:19;1.10;;;0.90;;
2956;SDS011;1488;51.548;7.222;2023-07-16T06:23:48;1.30;;;1.03;;
2956;SDS011;1488;51.548;7.222;2023-07-16T06:26:15;1.30;;;1.10;;
2956;SDS011;1488;51.548;7.222;2023-07-16T06:28:42;1.10;;;1.00;;
2956;SDS011;1488;51.548;7.222;2023-07-16T06:31:08;1.80;;;1.30;;
2956;SDS011;1488;51.548;7.222;2023-07-16T06:33:35;3.73;;;1.47;;
2956;SDS011;1488;51.548;7.222;2023-07-16T06:36:02;1.33;;;1.23;;
2956;SDS011;1488;51.548;7.222;2023-07-16T06:38:30;1.40;;;1.23;;
2956;SDS011;1488;51.548;7.222;2023-07-16T06:40:58;1.30;;;1.20;;
2956;SDS011;1488;51.548;7.222;2023-07-16T06:43:25;1.40;;;1.20;;
2956;SDS011;1488;51.548;7.222;2023-07-16T06:45:52;1.47;;;1.37;;
2956;SDS011;1488;51.548;7.222;2023-07-16T06:48:19;1.20;;;1.10;;
2956;SDS011;1488;51.548;7.222;2023-07-16T06:50:53;1.10;;;1.00;;
2956;SDS011;1488;51.548;7.222;2023-07-16T06:53:23;1.80;;;1.70;;
2956;SDS011;1488;51.548;7.222;2023-07-16T06:55:50;2.73;;;1.40;;
2956;SDS011;1488;51.548;7.222;2023-07-16T06:58:18;1.43;;;1.33;;
2956;SDS011;1488;51.548;7.222;2023-07-16T07:00:45;1.50;;;1.40;;
2956;SDS011;1488;51.548;7.222;2023-07-16T07:03:12;3.73;;;1.93;;
2956;SDS011;1488;51.548;7.222;2023-07-16T07:05:40;1.33;;;1.23;;
2956;SDS011;1488;51.548;7.222;2023-07-16T07:08:10;1.50;;;1.40;;
2956;SDS011;1488;51.548;7.222;2023-07-16T07:10:40;2.63;;;1.47;;
2956;SDS011;1488;51.548;7.222;2023-07-16T07:13:07;1.80;;;1.70;;
2956;SDS011;1488;51.548;7.222;2023-07-16T07:15:38;1.43;;;1.20;;
2956;SDS011;1488;51.548;7.222;2023-07-16T07:18:08;1.03;;;0.87;;
2956;SDS011;1488;51.548;7.222;2023-07-16T07:20:43;3.00;;;1.57;;
2956;SDS011;1488;51.548;7.222;2023-07-16T07:23:10;2.73;;;1.80;;
2956;SDS011;1488;51.548;7.222;2023-07-16T07:25:37;4.13;;;2.40;;
2956;SDS011;1488;51.548;7.222;2023-07-16T07:28:06;5.17;;;2.47;;
2956;SDS011;1488;51.548;7.222;2023-07-16T07:30:40;2.87;;;2.50;;
2956;SDS011;1488;51.548;7.222;2023-07-16T07:33:10;3.50;;;2.90;;
2956;SDS011;1488;51.548;7.222;2023-07-16T07:35:37;7.10;;;3.63;;
2956;SDS011;1488;51.548;7.222;2023-07-16T07:38:09;4.53;;;2.47;;
2956;SDS011;1488;51.548;7.222;2023-07-16T07:40:38;4.77;;;3.37;;
2956;SDS011;1488;51.548;7.222;2023-07-16T07:43:21;3.63;;;3.30;;
2956;SDS011;1488;51.548;7.222;2023-07-16T07:45:50;2.97;;;2.73;;
2956;SDS011;1488;51.548;7.222;2023-07-16T07:48:19;3.77;;;3.27;;
2956;SDS011;1488;51.548;7.222;2023-07-16T07:50:52;5.60;;;3.50;;
2956;SDS011;1488;51.548;7.222;2023-07-16T07:53:19;6.53;;;3.50;;
2956;SDS011;1488;51.548;7.222;2023-07-16T08:01:44;4.30;;;3.43;;
2956;SDS011;1488;51.548;7.222;2023-07-16T08:04:11;4.80;;;3.60;;
2956;SDS011;1488;51.548;7.222;2023-07-16T08:06:38;3.47;;;3.17;;
2956;SDS011;1488;51.548;7.222;2023-07-16T08:09:08;4.83;;;3.37;;
2956;SDS011;1488;51.548;7.222;2023-07-16T08:11:36;3.93;;;3.37;;
2956;SDS011;1488;51.548;7.222;2023-07-16T08:14:03;5.17;;;2.80;;
2956;SDS011;1488;51.548;7.222;2023-07-16T08:16:30;7.13;;;3.77;;
2956;SDS011;1488;51.548;7.222;2023-07-16T08:19:02;5.07;;;3.47;;
2956;SDS011;1488;51.548;7.222;2023-07-16T08:21:29;6.10;;;3.03;;
2956;SDS011;1488;51.548;7.222;2023-07-16T08:23:58;4.77;;;3.30;;
2956;SDS011;1488;51.548;7.222;2023-07-16T08:26:26;4.27;;;3.23;;
2956;SDS011;1488;51.548;7.222;2023-07-16T08:28:54;5.23;;;3.23;;
2956;SDS011;1488;51.548;7.222;2023-07-16T08:31:24;5.10;;;3.37;;
2956;SDS011;1488;51.548;7.222;2023-07-16T08:33:54;2.87;;;2.67;;
2956;SDS011;1488;51.548;7.222;2023-07-16T08:36:22;4.00;;;3.63;;
2956;SDS011;1488;51.548;7.222;2023-07-16T08:38:54;5.17;;;3.43;;
2956;SDS011;1488;51.548;7.222;2023-07-16T08:41:25;4.40;;;2.53;;
2956;SDS011;1488;51.548;7.222;2023-07-16T08:43:53;6.23;;;3.00;;
2956;SDS011;1488;51.548;7.222;2023-07-16T08:46:21;3.10;;;2.80;;
2956;SDS011;1488;51.548;7.222;2023-07-16T08:48:51;4.00;;;3.60;;
2956;SDS011;1488;51.548;7.222;2023-07-16T08:51:25;5.07;;;3.43;;
2956;SDS011;1488;51.548;7.222;2023-07-16T08:53:54;3.80;;;3.03;;
2956;SDS011;1488;51.548;7.222;2023-07-16T08:56:27;3.23;;;2.90;;
2956;SDS011;1488;51.548;7.222;2023-07-16T08:58:54;4.97;;;2.83;;
2956;SDS011;1488;51.548;7.222;2023-07-16T09:01:22;4.80;;;3.13;;
2956;SDS011;1488;51.548;7.222;2023-07-16T09:03:51;3.60;;;3.30;;
2956;SDS011;1488;51.548;7.222;2023-07-16T09:06:18;3.30;;;3.00;;
2956;SDS011;1488;51.548;7.222;2023-07-16T09:08:53;3.83;;;3.37;;
2956;SDS011;1488;51.548;7.222;2023-07-16T09:11:21;6.13;;;3.10;;
2956;SDS011;1488;51.548;7.222;2023-07-16T09:13:48;3.47;;;2.80;;
2956;SDS011;1488;51.548;7.222;2023-07-16T09:16:17;2.87;;;2.67;;
2956;SDS011;1488;51.548;7.222;2023-07-16T09:18:46;3.40;;;2.77;;
2956;SDS011;1488;51.548;7.222;2023-07-16T09:21:18;2.37;;;2.13;;
2956;SDS011;1488;51.548;7.222;2023-07-16T09:23:52;2.90;;;2.70;;
2956;SDS011;1488;51.548;7.222;2023-07-16T09:26:23;3.47;;;2.80;;
2956;SDS011;1488;51.548;7.222;2023-07-16T09:28:54;3.87;;;3.03;;
2956;SDS011;1488;51.548;7.222;2023-07-16T09:31:30;3.17;;;2.90;;
2956;SDS011;1488;51.548;7.222;2023-07-16T09:33:59;3.67;;;3.27;;
2956;SDS011;1488;51.548;7.222;2023-07-16T09:36:28;3.20;;;2.70;;
2956;SDS011;1488;51.548;7.222;2023-07-16T09:38:57;2.30;;;2.10;;
2956;SDS011;1488;51.548;7.222;2023-07-16T09:41:25;7.37;;;2.90;;
2956;SDS011;1488;51.548;7.222;2023-07-16T09:43:56;2.83;;;2.63;;
2956;SDS011;1488;51.548;7.222;2023-07-16T09:46:23;5.80;;;3.17;;
2956;SDS011;1488;51.548;7.222;2023-07-16T09:48:51;3.80;;;2.73;;
2956;SDS011;1488;51.548;7.222;2023-07-16T09:51:18;4.50;;;2.93;;
2956;SDS011;1488;51.548;7.222;2023-07-16T09:53:47;3.20;;;2.90;;
2956;SDS011;1488;51.548;7.222;2023-07-16T09:56:20;3.40;;;2.77;;
2956;SDS011;1488;51.548;7.222;2023-07-16T09:58:49;3.90;;;2.80;;
2956;SDS011;1488;51.548;7.222;2023-07-16T10:01:20;2.87;;;1.87;;
2956;SDS011;1488;51.548;7.222;2023-07-16T10:03:48;2.93;;;2.23;;
2956;SDS011;1488;51.548;7.222;2023-07-16T10:06:20;3.07;;;2.70;;
2956;SDS011;1488;51.548;7.222;2023-07-16T10:08:54;2.53;;;2.33;;
2956;SDS011;1488;51.548;7.222;2023-07-16T10:11:24;2.77;;;2.43;;
2956;SDS011;1488;51.548;7.222;2023-07-16T10:13:56;3.10;;;2.50;;
2956;SDS011;1488;51.548;7.222;2023-07-16T10:16:24;3.43;;;2.50;;
2956;SDS011;1488;51.548;7.222;2023-07-16T10:18:52;2.57;;;2.37;;
2956;SDS011;1488;51.548;7.222;2023-07-16T10:21:29;2.83;;;2.47;;
2956;SDS011;1488;51.548;7.222;2023-07-16T10:24:04;2.77;;;2.50;;
2956;SDS011;1488;51.548;7.222;2023-07-16T10:26:33;2.17;;;1.97;;
2956;SDS011;1488;51.548;7.222;2023-07-16T10:29:06;2.70;;;2.30;;
2956;SDS011;1488;51.548;7.222;2023-07-16T10:31:33;3.00;;;2.70;;
2956;SDS011;1488;51.548;7.222;2023-07-16T10:34:01;2.50;;;2.30;;
2956;SDS011;1488;51.548;7.222;2023-07-16T10:36:36;2.43;;;2.23;;
2956;SDS011;1488;51.548;7.222;2023-07-16T10:39:03;2.50;;;2.30;;
2956;SDS011;1488;51.548;7.222;2023-07-16T10:41:32;2.20;;;2.00;;
2956;SDS011;1488;51.548;7.222;2023-07-16T10:44:00;2.70;;;2.40;;
2956;SDS011;1488;51.548;7.222;2023-07-16T10:46:27;2.40;;;2.20;;
2956;SDS011;1488;51.548;7.222;2023-07-16T10:48:55;2.83;;;2.50;;
2956;SDS011;1488;51.548;7.222;2023-07-16T10:51:24;2.30;;;2.10;;
2956;SDS011;1488;51.548;7.222;2023-07-16T10:53:54;2.33;;;2.00;;
2956;SDS011;1488;51.548;7.222;2023-07-16T10:56:22;2.43;;;2.23;;
2956;SDS011;1488;51.548;7.222;2023-07-16T10:58:50;2.73;;;2.53;;
2956;SDS011;1488;51.548;7.222;2023-07-16T11:01:20;2.47;;;1.93;;
2956;SDS011;1488;51.548;7.222;2023-07-16T11:03:47;2.80;;;2.07;;
2956;SDS011;1488;51.548;7.222;2023-07-16T11:06:15;5.20;;;3.00;;
2956;SDS011;1488;51.548;7.222;2023-07-16T11:08:48;2.50;;;2.30;;
2956;SDS011;1488;51.548;7.222;2023-07-16T11:11:15;2.47;;;2.27;;
2956;SDS011;1488;51.548;7.222;2023-07-16T11:13:43;2.50;;;2.30;;
2956;SDS011;1488;51.548;7.222;2023-07-16T11:16:12;1.90;;;1.77;;
2956;SDS011;1488;51.548;7.222;2023-07-16T11:18:42;3.20;;;2.90;;
2956;SDS011;1488;51.548;7.222;2023-07-16T11:21:09;5.30;;;2.30;;
2956;SDS011;1488;51.548;7.222;2023-07-16T11:23:37;2.80;;;2.60;;
2956;SDS011;1488;51.548;7.222;2023-07-16T11:26:04;2.23;;;2.03;;
2956;SDS011;1488;51.548;7.222;2023-07-16T11:28:37;3.43;;;2.40;;
2956;SDS011;1488;51.548;7.222;2023-07-16T11:31:13;2.70;;;2.50;;
2956;SDS011;1488;51.548;7.222;2023-07-16T11:33:41;2.20;;;2.00;;
2956;SDS011;1488;51.548;7.222;2023-07-16T11:36:09;2.80;;;2.10;;
2956;SDS011;1488;51.548;7.222;2023-07-16T11:38:37;3.27;;;2.70;;
2956;SDS011;1488;51.548;7.222;2023-07-16T11:41:04;2.83;;;2.60;;
2956;SDS011;1488;51.548;7.222;2023-07-16T11:43:33;2.20;;;2.10;;
2956;SDS011;1488;51.548;7.222;2023-07-16T11:46:14;4.67;;;2.77;;
2956;SDS011;1488;51.548;7.222;2023-07-16T11:48:43;2.67;;;2.47;;
2956;SDS011;1488;51.548;7.222;2023-07-16T11:51:10;3.10;;;2.20;;
2956;SDS011;1488;51.548;7.222;2023-07-16T11:53:37;2.27;;;2.10;;
2956;SDS011;1488;51.548;7.222;2023-07-16T11:56:04;2.93;;;1.77;;
2956;SDS011;1488;51.548;7.222;2023-07-16T11:58:32;2.10;;;1.90;;
2956;SDS011;1488;51.548;7.222;2023-07-16T12:00:59;2.33;;;2.10;;
2956;SDS011;1488;51.548;7.222;2023-07-16T12:03:29;1.90;;;1.80;;
2956;SDS011;1488;51.548;7.222;2023-07-16T12:05:56;2.20;;;2.00;;
2956;SDS011;1488;51.548;7.222;2023-07-16T12:08:25;2.30;;;2.10;;
2956;SDS011;1488;51.548;7.222;2023-07-16T12:10:53;2.20;;;2.00;;
2956;SDS011;1488;51.548;7.222;2023-07-16T12:13:20;2.37;;;2.17;;
2956;SDS011;1488;51.548;7.222;2023-07-16T12:15:47;2.07;;;1.87;;
2956;SDS011;1488;51.548;7.222;2023-07-16T12:18:14;2.00;;;1.80;;
2956;SDS011;1488;51.548;7.222;2023-07-16T12:20:42;1.90;;;1.80;;
2956;SDS011;1488;51.548;7.222;2023-07-16T12:23:10;2.53;;;2.33;;
2956;SDS011;1488;51.548;7.222;2023-07-16T12:25:37;2.30;;;2.07;;
2956;SDS011;1488;51.548;7.222;2023-07-16T12:28:08;2.30;;;2.03;;
2956;SDS011;1488;51.548;7.222;2023-07-16T12:30:41;2.40;;;2.20;;
2956;SDS011;1488;51.548;7.222;2023-07-16T12:33:08;2.73;;;2.30;;
2956;SDS011;1488;51.548;7.222;2023-07-16T12:35:38;2.33;;;1.97;;
2956;SDS011;1488;51.548;7.222;2023-07-16T12:38:07;2.43;;;2.23;;
2956;SDS011;1488;51.548;7.222;2023-07-16T12:40:36;2.20;;;2.10;;
2956;SDS011;1488;51.548;7.222;2023-07-16T12:43:06;2.37;;;2.20;;
2956;SDS011;1488;51.548;7.222;2023-07-16T12:45:34;1.70;;;1.60;;
2956;SDS011;1488;51.548;7.222;2023-07-16T12:48:01;2.13;;;1.93;;
2956;SDS011;1488;51.548;7.222;2023-07-16T12:50:31;1.93;;;1.73;;
2956;SDS011;1488;51.548;7.222;2023-07-16T12:52:58;2.20;;;1.97;;
2956;SDS011;1488;51.548;7.222;2023-07-16T12:55:31;2.43;;;2.13;;
2956;SDS011;1488;51.548;7.222;2023-07-16T12:58:01;1.63;;;1.53;;
2956;SDS011;1488;51.548;7.222;2023-07-16T13:00:31;2.00;;;1.90;;
2956;SDS011;1488;51.548;7.222;2023-07-16T13:02:59;1.70;;;1.60;;
2956;SDS011;1488;51.548;7.222;2023-07-16T13:05:26;2.23;;;1.90;;
2956;SDS011;1488;51.548;7.222;2023-07-16T13:07:54;2.63;;;2.43;;
2956;SDS011;1488;51.548;7.222;2023-07-16T13:10:22;1.60;;;1.47;;
2956;SDS011;1488;51.548;7.222;2023-07-16T13:12:56;2.27;;;2.07;;
2956;SDS011;1488;51.548;7.222;2023-07-16T13:15:23;1.93;;;1.70;;
2956;SDS011;1488;51.548;7.222;2023-07-16T13:17:50;2.57;;;2.37;;
2956;SDS011;1488;51.548;7.222;2023-07-16T13:20:20;2.20;;;1.90;;
2956;SDS011;1488;51.548;7.222;2023-07-16T13:22:48;2.50;;;2.30;;
2956;SDS011;1488;51.548;7.222;2023-07-16T13:25:21;1.60;;;1.50;;
2956;SDS011;1488;51.548;7.222;2023-07-16T13:27:48;2.17;;;1.97;;
2956;SDS011;1488;51.548;7.222;2023-07-16T13:30:17;2.50;;;2.30;;
2956;SDS011;1488;51.548;7.222;2023-07-16T13:32:44;2.00;;;1.80;;
2956;SDS011;1488;51.548;7.222;2023-07-16T13:35:11;1.97;;;1.87;;
2956;SDS011;1488;51.548;7.222;2023-07-16T13:37:40;1.97;;;1.70;;
2956;SDS011;1488;51.548;7.222;2023-07-16T13:40:07;1.90;;;1.80;;
2956;SDS011;1488;51.548;7.222;2023-07-16T13:42:34;1.87;;;1.67;;
2956;SDS011;1488;51.548;7.222;2023-07-16T13:45:02;2.13;;;1.97;;
2956;SDS011;1488;51.548;7.222;2023-07-16T13:47:32;3.10;;;2.10;;
2956;SDS011;1488;51.548;7.222;2023-07-16T13:50:00;1.70;;;1.60;;
2956;SDS011;1488;51.548;7.222;2023-07-16T13:52:36;2.23;;;1.83;;
2956;SDS011;1488;51.548;7.222;2023-07-16T13:55:09;2.13;;;1.90;;
2956;SDS011;1488;51.548;7.222;2023-07-16T13:57:37;2.27;;;2.07;;
2956;SDS011;1488;51.548;7.222;2023-07-16T14:00:05;2.73;;;2.00;;
2956;SDS011;1488;51.548;7.222;2023-07-16T14:02:37;1.70;;;1.60;;
2956;SDS011;1488;51.548;7.222;2023-07-16T14:05:05;2.10;;;1.87;;
2956;SDS011;1488;51.548;7.222;2023-07-16T14:07:35;2.00;;;1.80;;
2956;SDS011;1488;51.548;7.222;2023-07-16T14:10:05;2.00;;;1.80;;
2956;SDS011;1488;51.548;7.222;2023-07-16T14:15:21;2.20;;;2.10;;
2956;SDS011;1488;51.548;7.222;2023-07-16T14:17:54;1.70;;;1.60;;
2956;SDS011;1488;51.548;7.222;2023-07-16T14:20:22;1.80;;;1.70;;
2956;SDS011;1488;51.548;7.222;2023-07-16T14:22:56;2.20;;;2.03;;
2956;SDS011;1488;51.548;7.222;2023-07-16T14:25:26;3.70;;;2.20;;
2956;SDS011;1488;51.548;7.222;2023-07-16T14:27:53;2.53;;;1.97;;
2956;SDS011;1488;51.548;7.222;2023-07-16T14:30:21;2.00;;;1.90;;
2956;SDS011;1488;51.548;7.222;2023-07-16T14:32:51;2.33;;;1.50;;
2956;SDS011;1488;51.548;7.222;2023-07-16T14:35:18;1.90;;;1.80;;
2956;SDS011;1488;51.548;7.222;2023-07-16T14:37:46;1.77;;;1.67;;
2956;SDS011;1488;51.548;7.222;2023-07-16T14:40:13;2.17;;;2.00;;
2956;SDS011;1488;51.548;7.222;2023-07-16T14:42:40;2.07;;;1.97;;
2956;SDS011;1488;51.548;7.222;2023-07-16T14:45:08;2.10;;;1.97;;
2956;SDS011;1488;51.548;7.222;2023-07-16T14:47:36;1.57;;;1.47;;
2956;SDS011;1488;51.548;7.222;2023-07-16T14:50:10;2.43;;;1.93;;
2956;SDS011;1488;51.548;7.222;2023-07-16T14:52:42;2.17;;;1.97;;
2956;SDS011;1488;51.548;7.222;2023-07-16T14:55:16;2.90;;;1.93;;
2956;SDS011;1488;51.548;7.222;2023-07-16T14:57:44;2.53;;;2.33;;
2956;SDS011;1488;51.548;7.222;2023-07-16T15:00:16;2.00;;;1.90;;
2956;SDS011;1488;51.548;7.222;2023-07-16T15:02:43;2.20;;;2.00;;
2956;SDS011;1488;51.548;7.222;2023-07-16T15:05:13;1.90;;;1.80;;
2956;SDS011;1488;51.548;7.222;2023-07-16T15:07:41;2.17;;;1.97;;
2956;SDS011;1488;51.548;7.222;2023-07-16T15:10:09;1.67;;;1.57;;
2956;SDS011;1488;51.548;7.222;2023-07-16T15:12:36;1.80;;;1.70;;
2956;SDS011;1488;51.548;7.222;2023-07-16T15:15:06;2.43;;;2.23;;
2956;SDS011;1488;51.548;7.222;2023-07-16T15:17:36;2.10;;;1.90;;
2956;SDS011;1488;51.548;7.222;2023-07-16T15:20:05;1.80;;;1.70;;
2956;SDS011;1488;51.548;7.222;2023-07-16T15:22:35;1.70;;;1.60;;
2956;SDS011;1488;51.548;7.222;2023-07-16T15:25:03;2.00;;;1.90;;
2956;SDS011;1488;51.548;7.222;2023-07-16T15:27:31;1.70;;;1.53;;
2956;SDS011;1488;51.548;7.222;2023-07-16T15:30:00;1.90;;;1.80;;
2956;SDS011;1488;51.548;7.222;2023-07-16T15:32:30;1.73;;;1.63;;
2956;SDS011;1488;51.548;7.222;2023-07-16T15:35:00;1.80;;;1.70;;
2956;SDS011;1488;51.548;7.222;2023-07-16T15:37:28;1.60;;;1.50;;
2956;SDS011;1488;51.548;7.222;2023-07-16T15:39:57;1.70;;;1.60;;
2956;SDS011;1488;51.548;7.222;2023-07-16T15:42:36;1.80;;;1.40;;